createdAt,value
2023-12-27T00:00:27.853Z,3.680
2023-12-27T00:01:28.805Z,3.030
2023-12-27T00:04:28.320Z,2.400
2023-12-27T00:05:27.925Z,3.200
2023-12-27T00:06:28.318Z,1.840
2023-12-27T00:08:27.877Z,2.040
2023-12-27T00:09:27.945Z,3.120
2023-12-27T00:10:28.337Z,3.840
2023-12-27T00:11:28.342Z,3.840
2023-12-27T00:12:28.460Z,2.880
2023-12-27T00:13:27.919Z,3.240
2023-12-27T00:16:28.251Z,1.546
2023-12-27T00:17:28.130Z,2.760
2023-12-27T00:18:28.593Z,3.760
2023-12-27T00:19:28.469Z,2.720
2023-12-27T00:21:28.102Z,2.280
2023-12-27T00:22:28.253Z,5.040
2023-12-27T00:23:28.242Z,4.440
2023-12-27T00:26:28.640Z,4.600
2023-12-27T00:27:28.607Z,3.720
2023-12-27T00:28:28.057Z,2.880
2023-12-27T00:30:28.923Z,0.630
2023-12-27T00:31:28.130Z,1.708
2023-12-27T00:32:28.516Z,2.760
2023-12-27T00:33:27.976Z,3.040
2023-12-27T00:34:28.732Z,1.680
2023-12-27T00:35:28.364Z,2.240
2023-12-27T00:36:28.475Z,3.400
2023-12-27T00:39:28.787Z,1.377
2023-12-27T00:40:28.047Z,1.831
2023-12-27T00:42:28.320Z,3.440
2023-12-27T00:43:28.047Z,3.160
2023-12-27T00:45:28.066Z,4.280
2023-12-27T00:46:28.387Z,3.160
2023-12-27T00:47:28.545Z,1.280
2023-12-27T00:49:28.565Z,2.880
2023-12-27T00:52:28.442Z,3.320
2023-12-27T00:53:28.258Z,5.000
2023-12-27T00:55:28.695Z,2.880
2023-12-27T00:56:27.889Z,1.840
2023-12-27T00:59:28.746Z,4.092
2023-12-27T01:00:28.789Z,4.080
2023-12-27T01:01:28.135Z,3.620
2023-12-27T01:02:28.083Z,3.160
2023-12-27T01:03:28.239Z,3.440
2023-12-27T01:04:28.924Z,3.160
2023-12-27T01:05:28.432Z,3.440
2023-12-27T01:08:28.513Z,1.040
2023-12-27T01:09:28.855Z,1.967
2023-12-27T01:10:28.178Z,1.993
2023-12-27T01:12:28.081Z,0.360
2023-12-27T01:16:28.042Z,0.040
2023-12-27T01:17:28.000Z,0.120
2023-12-27T01:18:28.363Z,0.000
2023-12-27T01:19:28.565Z,0.000
2023-12-27T01:21:28.027Z,0.000
2023-12-27T01:22:28.550Z,0.320
2023-12-27T01:23:28.563Z,1.360
2023-12-27T01:24:28.654Z,0.760
2023-12-27T01:25:27.801Z,1.320
2023-12-27T01:26:28.711Z,1.810
2023-12-27T01:27:28.696Z,2.280
2023-12-27T01:29:28.057Z,2.240
2023-12-27T01:30:27.954Z,2.040
2023-12-27T01:31:28.537Z,2.160
2023-12-27T01:32:27.943Z,3.480
2023-12-27T01:33:28.393Z,1.800
2023-12-27T01:34:29.182Z,2.833
2023-12-27T01:35:28.677Z,3.986
2023-12-27T01:36:28.667Z,3.080
2023-12-27T01:37:27.831Z,2.560
2023-12-27T01:38:28.622Z,1.720
2023-12-27T01:39:28.569Z,2.040
2023-12-27T01:40:27.926Z,2.040
2023-12-27T01:41:28.809Z,2.990
2023-12-27T01:42:28.743Z,3.280
2023-12-27T01:44:27.826Z,2.840
2023-12-27T01:45:28.958Z,2.680
2023-12-27T01:46:28.181Z,3.880
2023-12-27T01:47:28.199Z,4.040
2023-12-27T01:48:28.867Z,3.160
2023-12-27T01:49:27.921Z,4.800
2023-12-27T01:50:28.528Z,3.640
2023-12-27T01:51:28.562Z,3.000
2023-12-27T01:52:28.184Z,4.080
2023-12-27T01:54:28.141Z,2.240
2023-12-27T01:55:28.407Z,3.600
2023-12-27T01:56:28.343Z,3.080
2023-12-27T01:57:28.430Z,3.360
2023-12-27T01:58:28.207Z,4.560
2023-12-27T02:01:28.832Z,1.640
2023-12-27T02:02:27.859Z,1.880
2023-12-27T02:03:28.895Z,1.849
2023-12-27T02:06:28.401Z,3.760
2023-12-27T02:07:33.434Z,4.040
2023-12-27T02:08:28.271Z,3.760
2023-12-27T02:09:28.370Z,3.760
2023-12-27T02:10:28.686Z,4.120
2023-12-27T02:11:28.465Z,2.880
2023-12-27T02:12:28.389Z,4.040
2023-12-27T02:13:27.867Z,3.200
2023-12-27T02:14:28.771Z,2.361
2023-12-27T02:17:28.394Z,2.760
2023-12-27T02:18:28.895Z,2.360
2023-12-27T02:19:28.573Z,1.400
2023-12-27T02:21:28.089Z,0.800
2023-12-27T02:22:28.370Z,0.240
2023-12-27T02:23:28.353Z,0.000
2023-12-27T02:26:28.511Z,2.600
2023-12-27T02:27:28.529Z,2.600
2023-12-27T02:28:28.821Z,2.361
2023-12-27T02:29:27.919Z,2.156
2023-12-27T02:31:28.559Z,0.720
2023-12-27T02:32:27.995Z,0.880
2023-12-27T02:33:29.146Z,1.520
2023-12-27T02:34:28.480Z,2.120
2023-12-27T02:35:28.456Z,2.120
2023-12-27T02:36:27.914Z,1.600
2023-12-27T02:37:28.236Z,0.520
2023-12-27T02:38:28.573Z,1.840
2023-12-27T02:39:28.610Z,1.400
2023-12-27T02:40:27.826Z,0.240
2023-12-27T02:41:28.034Z,0.480
2023-12-27T02:42:27.913Z,2.520
2023-12-27T02:43:28.035Z,2.960
2023-12-27T02:44:27.948Z,2.960
2023-12-27T02:45:27.906Z,1.680
2023-12-27T02:46:28.141Z,1.440
2023-12-27T02:47:27.971Z,0.440
2023-12-27T02:48:28.460Z,0.440
2023-12-27T02:49:28.695Z,2.480
2023-12-27T02:50:28.083Z,2.560
2023-12-27T02:51:28.332Z,3.000
2023-12-27T02:52:28.462Z,2.080
2023-12-27T02:53:28.284Z,2.040
2023-12-27T02:54:28.331Z,0.560
2023-12-27T02:55:28.577Z,1.760
2023-12-27T02:56:28.460Z,2.800
2023-12-27T02:57:28.334Z,1.960
2023-12-27T02:58:28.255Z,1.640
2023-12-27T02:59:28.146Z,0.800
2023-12-27T03:00:28.281Z,1.840
2023-12-27T03:03:28.489Z,2.240
2023-12-27T03:04:28.082Z,1.640
2023-12-27T03:06:28.422Z,2.560
2023-12-27T03:07:28.137Z,2.040
2023-12-27T03:08:28.126Z,2.280
2023-12-27T03:09:28.157Z,2.640
2023-12-27T03:10:28.195Z,0.520
2023-12-27T03:11:28.075Z,0.040
2023-12-27T03:12:28.005Z,0.240
2023-12-27T03:13:28.278Z,2.320
2023-12-27T03:15:28.126Z,1.960
2023-12-27T03:16:28.483Z,0.560
2023-12-27T03:17:28.560Z,2.480
2023-12-27T03:18:28.938Z,3.541
2023-12-27T03:19:28.731Z,2.720
2023-12-27T03:21:28.052Z,1.800
2023-12-27T03:22:28.135Z,0.280
2023-12-27T03:23:27.943Z,0.600
2023-12-27T03:24:28.839Z,0.866
2023-12-27T03:25:28.251Z,0.936
2023-12-27T03:26:28.090Z,2.320
2023-12-27T03:28:28.177Z,2.960
2023-12-27T03:29:27.985Z,2.240
2023-12-27T03:30:28.073Z,2.720
2023-12-27T03:31:28.844Z,3.541
2023-12-27T03:32:28.111Z,2.034
2023-12-27T03:33:28.965Z,0.960
2023-12-27T03:34:29.062Z,0.000
2023-12-27T03:35:27.944Z,0.732
2023-12-27T03:38:28.285Z,2.240
2023-12-27T03:39:28.276Z,3.000
2023-12-27T03:41:27.871Z,3.480
2023-12-27T03:42:28.057Z,3.480
2023-12-27T03:43:28.481Z,2.800
2023-12-27T03:45:28.422Z,2.720
2023-12-27T03:47:28.174Z,2.600
2023-12-27T03:48:28.672Z,1.120
2023-12-27T03:49:28.896Z,3.120
2023-12-27T03:50:28.322Z,2.120
2023-12-27T03:51:28.455Z,3.000
2023-12-27T03:52:27.882Z,2.240
2023-12-27T03:53:28.545Z,2.920
2023-12-27T03:54:28.644Z,3.760
2023-12-27T03:56:28.115Z,2.800
2023-12-27T03:57:28.029Z,3.400
2023-12-27T03:58:28.452Z,4.560
2023-12-27T03:59:28.202Z,4.080
2023-12-27T04:00:28.235Z,4.880
2023-12-27T04:01:28.582Z,2.600
2023-12-27T04:02:28.723Z,2.990
2023-12-27T04:03:29.361Z,2.034
2023-12-27T04:04:28.153Z,2.960
2023-12-27T04:05:28.105Z,2.800
2023-12-27T04:06:28.498Z,3.040
2023-12-27T04:07:28.628Z,1.560
2023-12-27T04:08:28.494Z,1.840
2023-12-27T04:10:28.702Z,2.400
2023-12-27T04:11:28.522Z,2.359
2023-12-27T04:12:28.642Z,2.120
2023-12-27T04:14:28.454Z,2.400
2023-12-27T04:15:28.483Z,1.680
2023-12-27T04:16:27.894Z,0.880
2023-12-27T04:17:28.139Z,0.920
2023-12-27T04:18:28.996Z,2.160
2023-12-27T04:19:27.984Z,1.440
2023-12-27T04:20:28.527Z,1.040
2023-12-27T04:21:28.640Z,2.960
2023-12-27T04:22:28.040Z,2.120
2023-12-27T04:24:28.230Z,3.160
2023-12-27T04:25:28.440Z,2.680
2023-12-27T04:26:28.452Z,2.240
2023-12-27T04:27:28.563Z,2.080
2023-12-27T04:28:27.838Z,3.040
2023-12-27T04:29:28.758Z,1.652
2023-12-27T04:30:28.771Z,0.569
2023-12-27T04:33:28.405Z,2.800
2023-12-27T04:34:28.905Z,2.990
2023-12-27T04:35:28.409Z,3.539
2023-12-27T04:39:28.532Z,3.400
2023-12-27T04:40:28.662Z,3.440
2023-12-27T04:41:28.432Z,2.800
2023-12-27T04:42:28.469Z,1.560
2023-12-27T04:43:28.767Z,3.148
2023-12-27T04:44:28.547Z,3.173
2023-12-27T04:45:28.433Z,3.560
2023-12-27T04:46:28.032Z,3.960
2023-12-27T04:49:28.783Z,1.800
2023-12-27T04:50:27.969Z,1.680
2023-12-27T04:51:31.166Z,1.840
2023-12-27T04:53:28.480Z,1.760
2023-12-27T04:54:28.797Z,2.840
2023-12-27T04:55:28.175Z,3.160
2023-12-27T04:57:28.172Z,5.160
2023-12-27T04:58:28.505Z,3.600
2023-12-27T04:59:28.441Z,0.560
2023-12-27T05:00:28.682Z,3.560
2023-12-27T05:01:28.409Z,3.880
2023-12-27T05:02:28.429Z,3.400
2023-12-27T05:03:28.408Z,3.200
2023-12-27T05:06:28.252Z,2.600
2023-12-27T05:07:28.351Z,3.360
2023-12-27T05:08:28.192Z,3.480
2023-12-27T05:11:28.596Z,4.040
2023-12-27T05:12:28.536Z,4.080
2023-12-27T05:13:28.751Z,2.833
2023-12-27T05:14:28.616Z,4.027
2023-12-27T05:15:28.515Z,4.640
2023-12-27T05:17:28.752Z,5.080
2023-12-27T05:18:28.013Z,3.720
2023-12-27T05:19:28.437Z,3.920
2023-12-27T05:20:28.730Z,3.266
2023-12-27T05:21:28.754Z,3.376
2023-12-27T05:22:28.092Z,2.760
2023-12-27T05:25:28.031Z,3.173
2023-12-27T05:27:27.983Z,4.680
2023-12-27T05:28:28.254Z,4.280
2023-12-27T05:29:30.240Z,5.160
2023-12-27T05:31:28.489Z,4.600
2023-12-27T05:32:27.930Z,5.160
2023-12-27T05:33:28.390Z,4.520
2023-12-27T05:34:28.862Z,4.200
2023-12-27T05:35:28.442Z,3.640
2023-12-27T05:36:28.591Z,3.720
2023-12-27T05:38:28.039Z,2.880
2023-12-27T05:39:28.185Z,3.760
2023-12-27T05:40:28.514Z,2.680
2023-12-27T05:41:28.541Z,1.560
2023-12-27T05:42:28.512Z,0.720
2023-12-27T05:44:28.062Z,3.320
2023-12-27T05:45:27.935Z,2.760
2023-12-27T05:46:27.913Z,1.200
2023-12-27T05:47:28.529Z,0.800
2023-12-27T05:48:29.041Z,1.840
2023-12-27T05:49:28.541Z,1.920
2023-12-27T05:51:28.129Z,2.200
2023-12-27T05:52:28.488Z,2.880
2023-12-27T05:54:28.884Z,0.920
2023-12-27T05:55:27.943Z,1.080
2023-12-27T05:58:27.926Z,1.668
2023-12-27T05:59:28.953Z,2.518
2023-12-27T06:00:27.903Z,2.766
2023-12-27T06:01:28.538Z,0.560
2023-12-27T06:02:28.594Z,0.520
2023-12-27T06:03:28.734Z,1.840
2023-12-27T06:05:28.887Z,2.243
2023-12-27T06:06:28.224Z,3.580
2023-12-27T06:07:28.571Z,3.240
2023-12-27T06:08:28.514Z,5.000
2023-12-27T06:10:28.622Z,4.480
2023-12-27T06:11:28.536Z,4.640
2023-12-27T06:14:28.674Z,1.993
2023-12-27T06:16:27.936Z,1.200
2023-12-27T06:18:28.249Z,1.320
2023-12-27T06:19:29.206Z,2.046
2023-12-27T06:20:28.064Z,1.139
2023-12-27T06:23:27.966Z,0.480
2023-12-27T06:24:27.906Z,0.360
2023-12-27T06:25:28.052Z,0.000
2023-12-27T06:26:27.919Z,0.080
2023-12-27T06:29:27.949Z,1.840
2023-12-27T06:30:29.135Z,1.770
2023-12-27T06:31:29.021Z,1.040
2023-12-27T06:34:28.795Z,2.120
2023-12-27T06:36:27.946Z,1.080
2023-12-27T06:37:28.449Z,1.000
2023-12-27T06:38:27.851Z,2.200
2023-12-27T06:40:28.009Z,3.640
2023-12-27T06:41:28.038Z,2.360
2023-12-27T06:42:28.152Z,3.480
2023-12-27T06:43:29.115Z,4.280
2023-12-27T06:44:28.712Z,4.564
2023-12-27T06:45:28.668Z,4.271
2023-12-27T06:46:27.984Z,4.240
2023-12-27T06:48:28.430Z,4.160
2023-12-27T06:49:28.946Z,3.920
2023-12-27T06:52:28.149Z,4.108
2023-12-27T06:54:28.109Z,3.440
2023-12-27T06:55:28.631Z,4.240
2023-12-27T06:56:28.568Z,2.720
2023-12-27T06:57:28.644Z,2.120
2023-12-27T06:58:28.092Z,3.320
2023-12-27T07:01:28.153Z,4.759
2023-12-27T07:02:28.360Z,3.400
2023-12-27T07:03:28.727Z,5.520
2023-12-27T07:04:28.246Z,5.000
2023-12-27T07:05:28.681Z,4.200
2023-12-27T07:06:28.027Z,6.400
2023-12-27T07:07:28.392Z,3.120
2023-12-27T07:08:28.418Z,4.760
2023-12-27T07:09:28.434Z,4.840
2023-12-27T07:10:28.609Z,5.520
2023-12-27T07:11:28.439Z,4.160
2023-12-27T07:14:28.531Z,0.651
2023-12-27T07:15:28.474Z,2.080
2023-12-27T07:17:28.746Z,0.472
2023-12-27T07:18:28.091Z,1.383
2023-12-27T07:19:28.960Z,1.180
2023-12-27T07:20:28.671Z,1.000
2023-12-27T07:22:30.952Z,2.640
2023-12-27T07:24:28.548Z,2.520
2023-12-27T07:25:28.036Z,2.040
2023-12-27T07:27:28.063Z,2.320
2023-12-27T07:28:28.348Z,1.480
2023-12-27T07:29:28.252Z,2.800
2023-12-27T07:30:28.375Z,0.880
2023-12-27T07:31:27.942Z,2.640
2023-12-27T07:32:28.303Z,0.640
2023-12-27T07:33:28.728Z,0.320
2023-12-27T07:34:28.246Z,2.040
2023-12-27T07:36:27.911Z,3.320
2023-12-27T07:37:27.957Z,3.960
2023-12-27T07:38:28.740Z,2.046
2023-12-27T07:39:28.718Z,2.563
2023-12-27T07:40:28.175Z,4.440
2023-12-27T07:43:27.925Z,1.880
2023-12-27T07:44:28.685Z,3.030
2023-12-27T07:45:28.629Z,4.841
2023-12-27T07:48:27.951Z,3.173
2023-12-27T07:49:28.958Z,5.960
2023-12-27T07:50:28.334Z,5.400
2023-12-27T07:51:28.346Z,5.080
2023-12-27T07:52:28.578Z,5.040
2023-12-27T07:53:28.770Z,4.170
2023-12-27T07:54:27.831Z,2.766
2023-12-27T07:55:28.034Z,3.400
2023-12-27T07:56:27.967Z,3.760
2023-12-27T07:57:28.056Z,1.360
2023-12-27T07:58:28.281Z,3.880
2023-12-27T07:59:28.362Z,2.920
2023-12-27T08:00:28.388Z,3.040
2023-12-27T08:01:29.201Z,3.480
2023-12-27T08:02:28.682Z,1.377
2023-12-27T08:03:28.863Z,1.180
2023-12-27T08:04:28.386Z,2.200
2023-12-27T08:05:28.616Z,2.240
2023-12-27T08:06:28.714Z,2.360
2023-12-27T08:07:28.653Z,2.800
2023-12-27T08:08:28.562Z,1.080
2023-12-27T08:09:28.678Z,3.440
2023-12-27T08:10:27.961Z,3.320
2023-12-27T08:12:28.820Z,1.770
2023-12-27T08:13:28.396Z,1.790
2023-12-27T08:16:28.403Z,3.520
2023-12-27T08:17:28.336Z,2.720
2023-12-27T08:18:28.783Z,2.520
2023-12-27T08:19:28.335Z,1.840
2023-12-27T08:20:29.704Z,0.560
2023-12-27T08:21:28.693Z,0.080
2023-12-27T08:22:28.750Z,0.669
2023-12-27T08:23:28.625Z,3.051
2023-12-27T08:26:28.591Z,5.736
2023-12-27T08:27:28.656Z,4.320
2023-12-27T08:28:27.811Z,1.880
2023-12-27T08:29:28.748Z,4.603
2023-12-27T08:30:28.889Z,3.040
2023-12-27T08:32:28.008Z,2.360
2023-12-27T08:33:28.132Z,2.720
2023-12-27T08:34:28.954Z,2.557
2023-12-27T08:35:28.213Z,2.075
2023-12-27T08:37:27.814Z,2.720
2023-12-27T08:38:28.056Z,3.280
2023-12-27T08:39:28.503Z,3.880
2023-12-27T08:40:28.752Z,1.495
2023-12-27T08:41:28.714Z,3.360
2023-12-27T08:43:28.036Z,2.920
2023-12-27T08:45:28.087Z,5.000
2023-12-27T08:46:28.248Z,4.240
2023-12-27T08:47:28.143Z,6.000
2023-12-27T08:48:28.759Z,3.960
2023-12-27T08:49:28.008Z,2.680
2023-12-27T08:51:28.818Z,5.705
2023-12-27T08:52:27.879Z,2.847
2023-12-27T08:53:28.703Z,2.164
2023-12-27T08:54:28.661Z,4.068
2023-12-27T08:55:28.741Z,3.266
2023-12-27T08:56:28.707Z,4.068
2023-12-27T08:57:30.494Z,2.680
2023-12-27T08:58:28.569Z,1.560
2023-12-27T08:59:28.393Z,1.640
2023-12-27T09:00:28.224Z,5.520
2023-12-27T09:01:28.634Z,4.840
2023-12-27T09:02:28.695Z,3.856
2023-12-27T09:03:28.808Z,4.149
2023-12-27T09:04:28.631Z,4.400
2023-12-27T09:06:28.360Z,2.920
2023-12-27T09:07:27.910Z,1.600
2023-12-27T09:08:27.967Z,0.600
2023-12-27T09:09:27.952Z,2.280
2023-12-27T09:10:28.290Z,6.480
2023-12-27T09:11:41.114Z,4.720
2023-12-27T09:12:28.247Z,4.040
2023-12-27T09:13:28.254Z,5.040
2023-12-27T09:15:28.224Z,4.160
2023-12-27T09:16:28.560Z,5.480
2023-12-27T09:17:28.632Z,2.440
2023-12-27T09:18:27.897Z,0.720
2023-12-27T09:19:28.894Z,2.518
2023-12-27T09:21:28.665Z,4.560
2023-12-27T09:22:28.394Z,3.800
2023-12-27T09:23:28.660Z,2.680
2023-12-27T09:25:28.765Z,4.643
2023-12-27T09:26:28.091Z,5.003
2023-12-27T09:29:27.914Z,2.760
2023-12-27T09:30:29.035Z,5.075
2023-12-27T09:31:28.484Z,5.166
2023-12-27T09:32:28.764Z,5.400
2023-12-27T09:33:28.759Z,6.000
2023-12-27T09:34:28.282Z,4.760
2023-12-27T09:36:27.962Z,4.000
2023-12-27T09:37:28.115Z,4.600
2023-12-27T09:38:28.138Z,5.240
2023-12-27T09:39:28.184Z,2.840
2023-12-27T09:40:28.261Z,4.120
2023-12-27T09:41:28.448Z,4.360
2023-12-27T09:42:28.497Z,5.760
2023-12-27T09:43:28.133Z,1.400
2023-12-27T09:45:28.049Z,6.120
2023-12-27T09:46:28.106Z,4.800
2023-12-27T09:47:28.127Z,4.560
2023-12-27T09:48:28.687Z,4.280
2023-12-27T09:49:28.492Z,4.760
2023-12-27T09:51:28.602Z,3.920
2023-12-27T09:52:27.797Z,2.200
2023-12-27T09:53:27.916Z,3.920
2023-12-27T09:54:27.862Z,4.640
2023-12-27T09:55:28.121Z,3.080
2023-12-27T09:57:27.986Z,4.160
2023-12-27T09:58:28.122Z,3.800
2023-12-27T09:59:28.089Z,2.840
2023-12-27T10:00:28.369Z,3.320
2023-12-27T10:01:27.974Z,5.360
2023-12-27T10:02:28.091Z,2.200
2023-12-27T10:03:28.418Z,5.720
2023-12-27T10:04:27.834Z,8.600
2023-12-27T10:05:28.916Z,6.413
2023-12-27T10:06:28.138Z,5.736
2023-12-27T10:07:28.286Z,7.280
2023-12-27T10:08:28.491Z,7.440
2023-12-27T10:09:28.365Z,4.680
2023-12-27T10:10:29.151Z,9.285
2023-12-27T10:12:28.083Z,4.600
2023-12-27T10:13:28.153Z,3.080
2023-12-27T10:14:27.923Z,3.720
2023-12-27T10:15:29.323Z,7.161
2023-12-27T10:16:28.400Z,6.631
2023-12-27T10:19:28.259Z,9.480
2023-12-27T10:20:28.539Z,11.320
2023-12-27T10:21:28.649Z,8.240
2023-12-27T10:22:27.834Z,7.280
2023-12-27T10:23:28.755Z,7.711
2023-12-27T10:26:27.858Z,9.000
2023-12-27T10:27:28.928Z,13.102
2023-12-27T10:28:28.051Z,8.949
2023-12-27T10:29:28.016Z,6.440
2023-12-27T10:30:28.268Z,6.960
2023-12-27T10:31:28.003Z,6.720
2023-12-27T10:32:28.835Z,6.728
2023-12-27T10:33:30.956Z,8.217
2023-12-27T10:34:28.220Z,7.760
2023-12-27T10:35:28.518Z,7.400
2023-12-27T10:36:28.624Z,8.760
2023-12-27T10:38:28.767Z,9.800
2023-12-27T10:39:27.882Z,7.520
2023-12-27T10:40:27.999Z,9.120
2023-12-27T10:41:28.015Z,6.600
2023-12-27T10:42:27.944Z,8.560
2023-12-27T10:43:28.294Z,5.040
2023-12-27T10:44:28.134Z,9.800
2023-12-27T10:46:28.120Z,7.680
2023-12-27T10:47:27.990Z,3.120
2023-12-27T10:48:28.536Z,7.520
2023-12-27T10:49:28.545Z,8.520
2023-12-27T10:50:28.037Z,5.280
2023-12-27T10:51:30.133Z,4.360
2023-12-27T10:52:28.506Z,6.640
2023-12-27T10:53:28.318Z,6.720
2023-12-27T10:54:28.260Z,6.920
2023-12-27T10:55:28.413Z,6.000
2023-12-27T10:56:28.464Z,10.400
2023-12-27T10:57:30.862Z,6.240
2023-12-27T10:59:28.313Z,8.480
2023-12-27T11:00:28.333Z,9.120
2023-12-27T11:02:28.655Z,8.240
2023-12-27T11:03:31.166Z,7.560
2023-12-27T11:05:28.080Z,7.040
2023-12-27T11:06:28.489Z,6.160
2023-12-27T11:07:27.945Z,8.480
2023-12-27T11:08:27.837Z,6.200
2023-12-27T11:09:28.019Z,6.640
2023-12-27T11:10:28.249Z,4.600
2023-12-27T11:11:28.285Z,6.560
2023-12-27T11:12:28.243Z,4.280
2023-12-27T11:13:28.452Z,4.880
2023-12-27T11:14:28.373Z,7.160
2023-12-27T11:16:28.234Z,4.120
2023-12-27T11:17:28.001Z,5.640
2023-12-27T11:18:29.007Z,7.360
2023-12-27T11:19:28.773Z,6.200
2023-12-27T11:21:30.411Z,5.120
2023-12-27T11:22:27.952Z,7.880
2023-12-27T11:23:28.867Z,6.216
2023-12-27T11:24:28.812Z,3.440
2023-12-27T11:25:28.115Z,3.824
2023-12-27T11:27:30.235Z,4.640
2023-12-27T11:28:28.159Z,5.600
2023-12-27T11:29:28.007Z,7.640
2023-12-27T11:30:28.144Z,5.320
2023-12-27T11:31:28.923Z,3.720
2023-12-27T11:32:28.398Z,8.480
2023-12-27T11:33:31.525Z,8.320
2023-12-27T11:35:28.698Z,7.320
2023-12-27T11:36:27.858Z,9.480
2023-12-27T11:37:28.307Z,6.120
2023-12-27T11:38:28.292Z,4.240
2023-12-27T11:40:28.498Z,3.720
2023-12-27T11:41:27.979Z,9.760
2023-12-27T11:42:28.169Z,4.880
2023-12-27T11:43:28.412Z,7.000
2023-12-27T11:44:28.429Z,6.840
2023-12-27T11:45:28.418Z,6.840
2023-12-27T11:46:28.641Z,5.400
2023-12-27T11:47:28.693Z,8.440
2023-12-27T11:48:28.075Z,6.920
2023-12-27T11:49:28.077Z,9.440
2023-12-27T11:50:28.440Z,10.960
2023-12-27T11:51:28.663Z,12.960
2023-12-27T11:52:28.267Z,7.440
2023-12-27T11:54:27.968Z,11.000
2023-12-27T11:55:28.138Z,9.600
2023-12-27T11:56:28.003Z,8.400
2023-12-27T11:57:28.839Z,9.718
2023-12-27T11:58:27.921Z,8.054
2023-12-27T11:59:28.751Z,7.082
2023-12-27T12:01:28.907Z,7.200
2023-12-27T12:03:28.632Z,10.536
2023-12-27T12:04:29.160Z,10.466
2023-12-27T12:05:28.569Z,8.624
2023-12-27T12:06:28.775Z,7.560
2023-12-27T12:07:28.123Z,6.320
2023-12-27T12:09:28.087Z,9.280
2023-12-27T12:10:28.470Z,7.320
2023-12-27T12:11:28.393Z,5.160
2023-12-27T12:12:28.602Z,8.560
2023-12-27T12:13:27.855Z,5.960
2023-12-27T12:14:28.771Z,6.020
2023-12-27T12:15:27.936Z,8.014
2023-12-27T12:16:28.360Z,8.760
2023-12-27T12:17:28.897Z,7.720
2023-12-27T12:18:29.128Z,5.390
2023-12-27T12:19:28.080Z,7.688
2023-12-27T12:22:27.874Z,9.478
2023-12-27T12:23:28.057Z,12.920
2023-12-27T12:24:28.217Z,10.120
2023-12-27T12:25:27.890Z,10.480
2023-12-27T12:26:30.245Z,10.720
2023-12-27T12:27:28.784Z,14.760
2023-12-27T12:28:28.004Z,8.720
2023-12-27T12:29:28.222Z,7.560
2023-12-27T12:30:28.371Z,6.160
2023-12-27T12:31:28.582Z,6.680
2023-12-27T12:33:28.961Z,6.880
2023-12-27T12:34:28.019Z,9.200
2023-12-27T12:35:28.555Z,9.120
2023-12-27T12:38:28.545Z,6.360
2023-12-27T12:39:28.500Z,7.920
2023-12-27T12:40:28.804Z,2.480
2023-12-27T12:41:27.942Z,6.520
2023-12-27T12:42:28.872Z,5.666
2023-12-27T12:43:27.954Z,5.288
2023-12-27T12:44:30.634Z,5.941
2023-12-27T12:45:28.029Z,9.844
2023-12-27T12:46:28.361Z,6.040
2023-12-27T12:47:28.253Z,4.840
2023-12-27T12:48:28.806Z,9.520
2023-12-27T12:49:28.076Z,6.800
2023-12-27T12:50:28.786Z,4.603
2023-12-27T12:51:27.849Z,7.037
2023-12-27T12:52:28.059Z,6.240
2023-12-27T12:54:28.170Z,4.320
2023-12-27T12:55:28.384Z,5.240
2023-12-27T12:56:28.275Z,6.120
2023-12-27T12:57:27.912Z,5.760
2023-12-27T12:58:28.286Z,7.400
2023-12-27T12:59:28.214Z,7.640
2023-12-27T13:01:28.580Z,6.160
2023-12-27T13:02:27.796Z,6.600
2023-12-27T13:03:27.938Z,10.560
2023-12-27T13:04:28.475Z,8.080
2023-12-27T13:05:28.561Z,7.000
2023-12-27T13:08:28.425Z,8.040
2023-12-27T13:09:28.327Z,9.640
2023-12-27T13:10:28.564Z,7.960
2023-12-27T13:11:28.431Z,4.440
2023-12-27T13:14:28.305Z,5.880
2023-12-27T13:15:28.199Z,7.600
2023-12-27T13:16:28.224Z,6.040
2023-12-27T13:17:28.345Z,6.800
2023-12-27T13:20:28.237Z,10.600
2023-12-27T13:21:28.088Z,13.200
2023-12-27T13:22:28.280Z,10.000
2023-12-27T13:23:28.282Z,9.720
2023-12-27T13:24:28.223Z,7.120
2023-12-27T13:25:28.718Z,6.728
2023-12-27T13:26:28.685Z,10.400
2023-12-27T13:27:28.698Z,10.047
2023-12-27T13:30:28.226Z,6.840
2023-12-27T13:31:28.272Z,6.400
2023-12-27T13:32:28.258Z,6.200
2023-12-27T13:33:29.305Z,4.680
2023-12-27T13:34:28.495Z,6.600
2023-12-27T13:35:28.353Z,8.680
2023-12-27T13:36:28.460Z,7.880
2023-12-27T13:37:28.799Z,8.920
2023-12-27T13:38:27.844Z,12.400
2023-12-27T13:39:27.966Z,11.640
2023-12-27T13:40:28.192Z,7.960
2023-12-27T13:42:28.075Z,8.480
2023-12-27T13:43:28.233Z,4.800
2023-12-27T13:44:28.103Z,3.640
2023-12-27T13:45:28.217Z,4.040
2023-12-27T13:46:28.463Z,6.960
2023-12-27T13:47:28.237Z,7.000
2023-12-27T13:48:29.161Z,5.520
2023-12-27T13:49:27.885Z,6.160
2023-12-27T13:50:28.575Z,5.560
2023-12-27T13:51:28.529Z,5.320
2023-12-27T13:52:28.729Z,9.875
2023-12-27T13:53:28.622Z,8.054
2023-12-27T13:54:30.738Z,9.280
2023-12-27T13:55:28.636Z,9.560
2023-12-27T13:56:28.738Z,8.852
2023-12-27T13:57:28.754Z,6.793
2023-12-27T13:58:28.031Z,5.760
2023-12-27T13:59:28.047Z,6.840
2023-12-27T14:00:28.514Z,5.760
2023-12-27T14:01:28.639Z,8.160
2023-12-27T14:02:28.185Z,5.880
2023-12-27T14:03:28.664Z,4.400
2023-12-27T14:04:28.708Z,8.560
2023-12-27T14:05:28.232Z,7.480
2023-12-27T14:06:28.615Z,6.560
2023-12-27T14:07:27.913Z,6.680
2023-12-27T14:08:27.985Z,6.440
2023-12-27T14:09:28.951Z,7.790
2023-12-27T14:10:28.105Z,5.736
2023-12-27T14:11:28.111Z,10.960
2023-12-27T14:12:28.285Z,9.960
2023-12-27T14:13:28.030Z,11.080
2023-12-27T14:14:28.029Z,7.280
2023-12-27T14:15:27.980Z,10.080
2023-12-27T14:16:28.449Z,8.920
2023-12-27T14:17:28.561Z,8.640
2023-12-27T14:18:28.034Z,6.720
2023-12-27T14:19:28.106Z,6.480
2023-12-27T14:20:28.468Z,5.040
2023-12-27T14:21:28.645Z,9.960
2023-12-27T14:22:27.870Z,8.720
2023-12-27T14:23:28.725Z,7.318
2023-12-27T14:24:28.834Z,5.858
2023-12-27T14:25:27.984Z,4.760
2023-12-27T14:27:28.938Z,4.879
2023-12-27T14:28:28.310Z,4.759
2023-12-27T14:30:28.346Z,4.320
2023-12-27T14:31:28.014Z,6.040
2023-12-27T14:32:28.020Z,6.160
2023-12-27T14:33:28.061Z,4.000
2023-12-27T14:34:29.062Z,5.666
2023-12-27T14:35:28.035Z,5.451
2023-12-27T14:36:28.019Z,4.160
2023-12-27T14:37:28.571Z,6.400
2023-12-27T14:38:28.643Z,5.400
2023-12-27T14:40:28.729Z,7.239
2023-12-27T14:41:27.792Z,7.281
2023-12-27T14:42:29.026Z,6.452
2023-12-27T14:43:28.866Z,5.520
2023-12-27T14:45:28.206Z,5.640
2023-12-27T14:46:28.379Z,4.520
2023-12-27T14:47:28.414Z,5.040
2023-12-27T14:48:28.730Z,5.200
2023-12-27T14:49:29.139Z,6.295
2023-12-27T14:50:28.472Z,6.712
2023-12-27T14:51:28.576Z,4.440
2023-12-27T14:52:27.821Z,5.520
2023-12-27T14:53:27.897Z,4.600
2023-12-27T14:54:28.146Z,4.400
2023-12-27T14:55:28.443Z,6.080
2023-12-27T14:56:28.398Z,6.200
2023-12-27T14:59:28.479Z,4.840
2023-12-27T15:00:28.784Z,6.600
2023-12-27T15:01:28.183Z,7.160
2023-12-27T15:02:28.502Z,6.800
2023-12-27T15:03:28.887Z,8.160
2023-12-27T15:04:28.467Z,5.560
2023-12-27T15:05:28.787Z,6.600
2023-12-27T15:06:28.211Z,5.920
2023-12-27T15:07:28.636Z,5.560
2023-12-27T15:08:28.643Z,6.200
2023-12-27T15:09:28.194Z,4.840
2023-12-27T15:10:28.546Z,6.720
2023-12-27T15:11:28.450Z,5.720
2023-12-27T15:12:28.487Z,4.920
2023-12-27T15:13:28.711Z,4.600
2023-12-27T15:14:28.711Z,6.560
2023-12-27T15:15:28.586Z,7.880
2023-12-27T15:17:27.879Z,6.800
2023-12-27T15:18:28.647Z,4.600
2023-12-27T15:19:28.247Z,4.880
2023-12-27T15:20:28.812Z,4.525
2023-12-27T15:21:28.783Z,4.719
2023-12-27T15:22:28.776Z,5.640
2023-12-27T15:23:28.673Z,6.807
2023-12-27T15:24:28.668Z,5.125
2023-12-27T15:25:28.110Z,4.640
2023-12-27T15:26:28.154Z,5.240
2023-12-27T15:27:28.229Z,3.680
2023-12-27T15:28:28.446Z,5.240
2023-12-27T15:29:28.428Z,5.360
2023-12-27T15:30:28.561Z,5.840
2023-12-27T15:33:28.277Z,5.410
2023-12-27T15:34:28.026Z,2.840
2023-12-27T15:35:28.281Z,4.960
2023-12-27T15:36:28.504Z,4.360
2023-12-27T15:38:28.120Z,4.080
2023-12-27T15:39:29.931Z,6.200
2023-12-27T15:40:27.945Z,5.280
2023-12-27T15:41:28.312Z,3.920
2023-12-27T15:42:28.385Z,6.480
2023-12-27T15:43:27.819Z,5.840
2023-12-27T15:44:28.732Z,7.239
2023-12-27T15:47:28.602Z,6.000